Time;durP1;ratioP1;P1;durP2;ratioP2;P2;SDS_P1;SDS_P2;PMS_P1;PMS_P2;Temp;Humidity;BMP_temperature;BMP_pressure;BME280_temperature;BME280_humidity;BME280_pressure;Samples;Min_cycle;Max_cycle;Signal;HPM_P1;HPM_P2
2021/04/02 00:00:49;;;;;;;31.42;21.48;;;;;;;10.18;69.46;100291.22;2188227;81;33154;-63
2021/04/02 00:03:52;;;;;;;36.68;21.65;;;;;;;10.13;69.32;100291.93;2195069;79;28869;-64
2021/04/02 00:06:54;;;;;;;26.05;18.10;;;;;;;10.08;69.29;100289.94;2227363;79;27726;-63
2021/04/02 00:09:56;;;;;;;26.05;18.12;;;;;;;10.03;69.30;100288.83;2227027;79;28885;-63
2021/04/02 00:12:58;;;;;;;23.47;16.55;;;;;;;9.97;69.31;100294.00;2218624;80;31913;-62
2021/04/02 00:16:01;;;;;;;21.57;15.25;;;;;;;9.89;69.25;100298.83;2218708;80;33547;-63
2021/04/02 00:19:04;;;;;;;19.60;14.25;;;;;;;9.75;69.20;100295.48;2218810;80;29851;-64
2021/04/02 00:22:06;;;;;;;17.98;13.38;;;;;;;9.70;69.32;100305.03;2242145;78;27638;-64
2021/04/02 00:25:11;;;;;;;21.05;14.93;;;;;;;9.61;69.21;100297.89;2250670;79;29838;-62
2021/04/02 00:28:15;;;;;;;22.02;15.58;;;;;;;9.51;69.41;100306.35;2211868;80;31140;-64
2021/04/02 00:31:19;;;;;;;21.45;15.38;;;;;;;9.38;69.33;100308.70;2206766;79;33134;-63
2021/04/02 00:34:40;;;;;;;20.43;15.55;;;;;;;9.26;69.43;100303.91;2225768;80;30030;-64
2021/04/02 00:37:42;;;;;;;20.70;15.05;;;;;;;9.17;69.30;100305.66;2204138;80;27792;-64
2021/04/02 00:40:49;;;;;;;20.75;15.58;;;;;;;9.06;69.56;100305.64;2242946;78;28802;-64
2021/04/02 00:43:51;;;;;;;21.82;15.93;;;;;;;9.02;69.63;100305.84;2222888;78;31156;-64
2021/04/02 00:46:54;;;;;;;20.68;15.15;;;;;;;8.99;69.80;100313.98;2214876;80;33942;-64
2021/04/02 00:49:56;;;;;;;24.92;17.00;;;;;;;8.93;69.97;100311.11;2224950;80;29167;-65
2021/04/02 00:52:58;;;;;;;24.77;17.45;;;;;;;8.91;70.00;100315.66;2224755;79;27761;-64
2021/04/02 00:56:02;;;;;;;22.75;16.20;;;;;;;8.87;69.84;100312.70;2199565;80;29712;-64
2021/04/02 00:59:05;;;;;;;25.92;16.37;;;;;;;8.86;69.88;100307.84;2225590;80;31180;-64
2021/04/02 01:02:08;;;;;;;25.43;17.20;;;;;;;8.86;69.86;100308.29;2185101;81;33994;-64
2021/04/02 01:05:18;;;;;;;27.60;19.40;;;;;;;8.78;70.26;100313.51;2228207;78;29211;-64
2021/04/02 01:08:27;;;;;;;29.87;19.40;;;;;;;8.74;69.92;100313.23;2225822;80;27582;-63
2021/04/02 01:11:29;;;;;;;26.12;20.00;;;;;;;8.73;70.19;100312.82;2225285;80;28823;-64
2021/04/02 01:14:31;;;;;;;31.27;22.82;;;;;;;8.69;70.43;100315.21;2226082;80;31137;-63
2021/04/02 01:17:34;;;;;;;36.75;25.37;;;;;;;8.64;70.61;100318.08;2260678;78;33126;-63
2021/04/02 01:20:37;;;;;;;31.97;24.15;;;;;;;8.60;70.79;100318.27;2254828;78;30140;-64
2021/04/02 01:24:02;;;;;;;32.05;23.05;;;;;;;8.53;70.78;100329.67;2225653;79;27676;-64
2021/04/02 01:27:29;;;;;;;;;;;;;;;8.45;70.76;100335.30;2230891;78;28816;-64
2021/04/02 01:30:31;;;;;;;27.45;21.45;;;;;;;8.44;70.76;100336.70;2181974;81;31617;-64
2021/04/02 01:33:33;;;;;;;28.23;21.62;;;;;;;8.38;70.89;100347.62;2222776;80;35506;-63
2021/04/02 01:36:41;;;;;;;28.83;21.02;;;;;;;8.30;71.05;100339.91;2244185;78;30453;-64
2021/04/02 01:39:44;;;;;;;26.60;20.17;;;;;;;8.24;71.22;100336.14;2222067;80;27652;-64
2021/04/02 01:42:47;;;;;;;23.92;19.05;;;;;;;8.18;71.17;100339.92;2222785;80;28820;-64
2021/04/02 01:45:50;;;;;;;22.87;16.93;;;;;;;8.11;70.99;100335.30;2239281;77;32119;-63
2021/04/02 01:48:59;;;;;;;24.15;18.07;;;;;;;8.05;71.07;100338.19;2222869;80;33980;-64
2021/04/02 01:52:03;;;;;;;21.80;16.95;;;;;;;7.99;71.19;100341.97;2222415;80;30066;-64
2021/04/02 01:55:10;;;;;;;21.45;17.20;;;;;;;7.92;71.13;100347.15;2222751;79;27651;-64
2021/04/02 01:58:12;;;;;;;24.20;16.85;;;;;;;7.86;71.18;100354.89;2302038;77;28809;-64
2021/04/02 02:01:16;;;;;;;21.97;15.98;;;;;;;7.84;71.17;100354.55;2275820;77;31245;-63
2021/04/02 02:04:22;;;;;;;15.15;11.55;;;;;;;7.80;71.59;100360.47;2222097;79;33597;-63
2021/04/02 02:07:24;;;;;;;25.37;17.20;;;;;;;7.75;71.18;100358.44;2195465;80;29220;-63
2021/04/02 02:10:26;;;;;;;24.72;17.00;;;;;;;7.71;71.51;100360.35;2238018;78;27691;-63
2021/04/02 02:13:30;;;;;;;22.27;16.73;;;;;;;7.66;71.53;100367.64;2262791;78;29683;-63
2021/04/02 02:16:33;;;;;;;19.98;16.50;;;;;;;7.61;71.51;100373.63;2291577;77;31128;-64
2021/04/02 02:19:38;;;;;;;23.50;17.42;;;;;;;7.56;72.00;100375.09;2224355;77;33545;-64
2021/04/02 02:22:41;;;;;;;23.73;18.37;;;;;;;7.51;71.67;100383.75;2222937;80;29159;-63
2021/04/02 02:25:44;;;;;;;21.97;17.35;;;;;;;7.45;71.71;100387.47;2182059;81;27755;-63
2021/04/02 02:28:48;;;;;;;22.40;18.52;;;;;;;7.40;71.90;100391.23;2229826;78;29314;-64
2021/04/02 02:31:51;;;;;;;25.12;18.23;;;;;;;7.36;72.24;100395.80;2191521;80;31135;-64
2021/04/02 02:34:53;;;;;;;25.17;18.67;;;;;;;7.31;72.41;100393.75;2156565;82;33196;-63
2021/04/02 02:37:58;;;;;;;20.40;16.93;;;;;;;7.28;72.58;100404.54;2156571;82;29141;-64
2021/04/02 02:41:02;;;;;;;23.07;17.67;;;;;;;7.25;72.43;100406.83;2158789;81;27614;-64
2021/04/02 02:44:06;;;;;;;22.52;18.57;;;;;;;7.22;72.44;100408.73;2156479;82;28921;-64
2021/04/02 02:47:08;;;;;;;25.75;20.72;;;;;;;7.21;72.52;100408.33;2156496;82;31905;-64
2021/04/02 02:50:18;;;;;;;37.48;26.87;;;;;;;7.20;72.79;100411.91;2199004;80;33766;-64
2021/04/02 02:53:24;;;;;;;22.30;18.40;;;;;;;7.19;72.60;100413.72;2176652;81;29161;-64
2021/04/02 02:56:28;;;;;;;20.45;18.23;;;;;;;7.14;72.77;100418.32;2168528;81;27677;-64
2021/04/02 02:59:31;;;;;;;20.15;17.45;;;;;;;7.10;72.36;100418.89;2180485;80;28802;-65
2021/04/02 03:02:33;;;;;;;19.87;16.55;;;;;;;7.08;72.21;100422.51;2179249;81;31286;-63
2021/04/02 03:05:36;;;;;;;18.65;14.93;;;;;;;7.06;72.42;100419.91;2179283;81;33123;-64
2021/04/02 03:08:46;;;;;;;15.75;13.48;;;;;;;7.05;72.50;100419.50;2179244;81;29165;-64
2021/04/02 03:11:49;;;;;;;15.48;13.70;;;;;;;7.03;72.20;100424.48;2199959;79;27810;-63
2021/04/02 03:14:52;;;;;;;14.85;13.18;;;;;;;7.07;72.43;100427.42;2195027;81;28836;-64
2021/04/02 03:18:06;;;;;;;15.28;12.37;;;;;;;7.06;72.12;100427.02;2175727;80;32121;-63
2021/04/02 03:21:18;;;;;;;16.47;14.53;;;;;;;7.07;72.48;100441.63;2251529;77;28962;-64
2021/04/02 03:24:22;;;;;;;16.37;14.70;;;;;;;6.99;72.19;100432.56;2212662;80;27646;-64
2021/04/02 03:27:28;;;;;;;16.97;14.35;;;;;;;6.96;72.20;100436.66;2215338;80;29672;-64
2021/04/02 03:30:31;;;;;;;16.60;13.62;;;;;;;6.98;72.25;100437.92;2221100;79;32178;-64
2021/04/02 03:33:40;;;;;;;15.35;13.03;;;;;;;6.91;72.08;100435.92;2200430;79;33323;-63
2021/04/02 03:36:46;;;;;;;16.00;12.78;;;;;;;6.87;71.94;100438.73;2186102;80;30874;-63
2021/04/02 03:39:50;;;;;;;14.98;11.40;;;;;;;6.78;72.06;100446.11;2214633;78;27760;-64
2021/04/02 03:42:56;;;;;;;13.73;10.60;;;;;;;6.70;72.16;100446.80;2196355;80;28965;-63
2021/04/02 03:46:00;;;;;;;13.90;10.82;;;;;;;6.64;71.98;100451.86;2216731;80;31130;-64
2021/04/02 03:49:05;;;;;;;12.88;10.48;;;;;;;6.59;72.08;100451.12;2215178;80;33967;-64
2021/04/02 03:52:12;;;;;;;11.90;10.03;;;;;;;6.60;72.25;100453.34;2217262;80;35357;-64
2021/04/02 03:55:17;;;;;;;14.65;10.85;;;;;;;6.56;71.87;100452.53;2217484;80;27635;-63
2021/04/02 03:58:21;;;;;;;12.45;10.25;;;;;;;6.54;71.89;100462.36;2212865;80;28824;-64
2021/04/02 04:01:29;;;;;;;12.07;10.80;;;;;;;6.47;71.74;100449.70;2180039;79;32142;-64
2021/04/02 04:04:32;;;;;;;13.00;10.40;;;;;;;6.46;71.62;100449.75;2178829;81;33094;-63
2021/04/02 04:07:35;;;;;;;14.05;10.50;;;;;;;6.44;71.62;100459.57;2189535;80;31192;-64
2021/04/02 04:10:37;;;;;;;10.90;9.75;;;;;;;6.41;71.57;100452.56;2217668;80;27623;-64
2021/04/02 04:13:41;;;;;;;10.90;9.80;;;;;;;6.41;71.47;100454.34;2217415;80;28809;-64
2021/04/02 04:16:45;;;;;;;10.68;9.28;;;;;;;6.41;71.50;100453.00;2216319;80;31146;-64
2021/04/02 04:19:49;;;;;;;12.37;9.23;;;;;;;6.42;71.51;100454.31;2220192;80;33104;-64
2021/04/02 04:22:52;;;;;;;10.45;8.30;;;;;;;6.44;71.48;100458.24;2200664;80;30046;-63
2021/04/02 04:25:56;;;;;;;9.55;8.45;;;;;;;6.44;71.33;100462.23;2185594;78;27650;-64
2021/04/02 04:28:59;;;;;;;13.45;9.33;;;;;;;6.42;71.38;100462.73;2199833;80;29978;-64
2021/04/02 04:32:01;;;;;;;11.22;10.03;;;;;;;6.41;71.24;100460.98;2185240;81;31121;-64
2021/04/02 04:35:05;;;;;;;10.95;9.75;;;;;;;6.40;71.19;100461.46;2185109;81;33070;-64
2021/04/02 04:38:08;;;;;;;13.13;10.00;;;;;;;6.35;71.13;100464.70;2205368;80;28865;-64
2021/04/02 04:41:10;;;;;;;10.65;9.30;;;;;;;6.34;71.21;100473.61;2215789;80;28292;-64
2021/04/02 04:44:13;;;;;;;9.45;8.43;;;;;;;6.29;70.92;100473.75;2185117;81;28818;-64
2021/04/02 04:47:16;;;;;;;11.22;9.15;;;;;;;6.23;70.85;100468.15;2190775;80;31176;-64
2021/04/02 04:53:36;;;;;;;14.60;10.87;;;;;;;6.24;70.85;100469.00;2213811;80;27849;-64
2021/04/02 04:56:40;;;;;;;13.38;9.88;;;;;;;6.15;70.74;100475.94;2180986;81;27742;-65
2021/04/02 04:59:43;;;;;;;8.75;7.53;;;;;;;6.11;70.63;100479.15;2144042;83;28807;-64
2021/04/02 05:02:46;;;;;;;8.93;7.55;;;;;;;6.08;70.72;100491.20;2150491;81;31182;-64
2021/04/02 05:05:52;;;;;;;10.08;8.13;;;;;;;6.07;70.68;100497.43;2170960;81;35400;-64
2021/04/02 05:08:55;;;;;;;10.98;7.55;;;;;;;6.05;70.43;100493.94;2179498;81;28750;-64
2021/04/02 05:11:59;;;;;;;14.38;9.68;;;;;;;6.02;70.42;100497.56;2181299;81;27706;-64
2021/04/02 05:15:03;;;;;;;11.05;8.88;;;;;;;6.02;70.34;100504.22;2181452;81;29815;-64
2021/04/02 05:18:06;;;;;;;8.08;7.10;;;;;;;6.03;70.34;100505.96;2180519;81;31115;-64
2021/04/02 05:21:09;;;;;;;11.28;8.15;;;;;;;6.06;70.24;100505.84;2181481;81;33110;-64
2021/04/02 05:24:12;;;;;;;11.50;9.23;;;;;;;6.06;70.08;100512.97;2181563;81;28872;-64
2021/04/02 05:27:14;;;;;;;8.40;7.00;;;;;;;6.04;69.96;100520.12;2180379;81;27606;-63
2021/04/02 05:30:17;;;;;;;11.90;7.33;;;;;;;6.00;69.67;100521.11;2181430;81;28839;-64
2021/04/02 05:33:19;;;;;;;10.90;6.92;;;;;;;5.98;69.84;100529.11;2181576;81;32140;-63
2021/04/02 05:36:22;;;;;;;11.43;7.97;;;;;;;5.95;69.68;100530.52;2180752;81;33076;-63
2021/04/02 05:39:24;;;;;;;13.75;9.45;;;;;;;5.95;69.64;100532.31;2181316;81;28868;-63
2021/04/02 05:42:28;;;;;;;20.10;12.58;;;;;;;5.97;69.52;100539.77;2181530;81;27652;-64
2021/04/02 05:45:30;;;;;;;22.50;13.78;;;;;;;5.95;69.53;100537.16;2151887;81;28823;-63
2021/04/02 05:48:34;;;;;;;22.07;12.47;;;;;;;5.90;69.48;100543.94;2153926;81;31137;-63
2021/04/02 05:51:36;;;;;;;13.45;8.60;;;;;;;5.93;69.40;100547.85;2165066;80;33990;-63
2021/04/02 05:54:44;;;;;;;20.48;12.07;;;;;;;5.97;69.26;100549.07;2185207;80;28870;-64
2021/04/02 05:57:47;;;;;;;39.27;19.65;;;;;;;5.97;68.98;100550.41;2194575;80;27681;-64
2021/04/02 06:00:50;;;;;;;22.90;13.08;;;;;;;5.98;68.71;100545.50;2178348;81;28827;-63
2021/04/02 06:03:53;;;;;;;17.42;10.78;;;;;;;5.97;68.46;100547.74;2178664;81;32184;-63
2021/04/02 06:06:57;;;;;;;14.85;8.05;;;;;;;5.98;68.52;100549.48;2152268;81;33107;-63
2021/04/02 06:10:03;;;;;;;8.60;6.35;;;;;;;5.98;68.68;100550.38;2178520;81;28915;-64
2021/04/02 06:13:05;;;;;;;10.35;6.55;;;;;;;6.04;68.32;100553.36;2178267;81;27825;-64
2021/04/02 06:16:08;;;;;;;13.05;8.10;;;;;;;6.07;68.15;100550.62;2159580;81;28867;-63
2021/04/02 06:19:10;;;;;;;25.77;12.53;;;;;;;6.12;68.17;100554.48;2119123;84;31152;-63
2021/04/02 06:22:15;;;;;;;16.48;9.73;;;;;;;6.16;67.95;100558.34;2119188;84;32064;-65
2021/04/02 06:25:18;;;;;;;19.82;10.75;;;;;;;6.18;67.77;100559.64;2169155;81;28945;-64
2021/04/02 06:28:30;;;;;;;8.95;7.03;;;;;;;6.19;67.47;100555.60;2178576;81;27759;-64
2021/04/02 06:31:35;;;;;;;6.80;5.67;;;;;;;6.20;67.80;100557.34;2177518;81;29638;-64
2021/04/02 06:34:46;;;;;;;6.75;5.70;;;;;;;6.26;67.66;100562.09;2177585;81;31625;-65
2021/04/02 06:37:55;;;;;;;6.22;5.62;;;;;;;6.30;67.68;100568.61;2178401;81;33169;-64
2021/04/02 06:41:01;;;;;;;7.45;5.55;;;;;;;6.33;66.77;100576.95;2132902;81;29839;-64
2021/04/02 06:44:06;;;;;;;12.00;9.08;;;;;;;6.33;67.00;100568.98;2128463;81;27852;-63
2021/04/02 06:47:08;;;;;;;24.37;14.40;;;;;;;6.38;66.53;100576.39;2178668;81;28884;-63
2021/04/02 06:50:21;;;;;;;8.70;6.45;;;;;;;6.37;66.59;100571.50;2178311;81;31147;-65
2021/04/02 06:53:25;;;;;;;5.72;5.15;;;;;;;6.37;66.30;100577.30;2179429;80;33117;-63
2021/04/02 06:56:28;;;;;;;7.57;4.83;;;;;;;6.39;66.32;100571.00;2150775;81;28868;-64
2021/04/02 06:59:35;;;;;;;14.07;7.67;;;;;;;6.41;66.00;100581.62;2143226;83;27636;-63
2021/04/02 07:02:39;;;;;;;8.00;5.58;;;;;;;6.41;65.61;100584.73;2143483;83;28823;-62
2021/04/02 07:05:42;;;;;;;9.03;6.37;;;;;;;6.48;65.73;100578.33;2167332;81;31151;-63
2021/04/02 07:08:46;;;;;;;5.90;5.00;;;;;;;6.56;65.44;100584.30;2180825;81;32629;-64
2021/04/02 07:11:51;;;;;;;8.55;6.00;;;;;;;6.64;65.20;100585.41;2180699;80;30264;-65
2021/04/02 07:14:53;;;;;;;;;;;;;;;6.75;64.97;100592.65;2140603;83;27822;-65
2021/04/02 07:17:56;;;;;;;6.08;5.30;;;;;;;6.84;64.66;100587.03;2138714;83;28882;-64
2021/04/02 07:20:58;;;;;;;6.03;4.97;;;;;;;6.90;64.31;100591.78;2138583;83;32184;-63
2021/04/02 07:24:01;;;;;;;14.05;8.20;;;;;;;6.90;64.11;100589.97;2102607;84;33962;-65
2021/04/02 07:27:04;;;;;;;10.20;7.58;;;;;;;6.95;64.08;100593.38;2100135;84;28868;-64
2021/04/02 07:30:12;;;;;;;14.87;10.18;;;;;;;7.04;64.35;100596.67;2100948;84;27722;-64
2021/04/02 07:33:15;;;;;;;11.88;8.55;;;;;;;7.23;64.47;100593.00;2113869;83;28835;-65
2021/04/02 07:36:20;;;;;;;9.20;6.83;;;;;;;7.42;64.60;100590.17;2138285;83;31191;-64
2021/04/02 07:39:24;;;;;;;6.85;6.15;;;;;;;7.59;63.81;100596.28;2102653;84;34326;-64
2021/04/02 07:42:31;;;;;;;8.70;7.17;;;;;;;7.72;63.42;100590.54;2100871;84;28857;-64
2021/04/02 07:45:35;;;;;;;9.05;7.72;;;;;;;7.87;63.27;100594.03;2120338;83;27675;-64
2021/04/02 07:48:37;;;;;;;7.17;5.33;;;;;;;7.90;61.89;100593.07;2102770;84;28827;-63
2021/04/02 07:51:49;;;;;;;8.75;7.78;;;;;;;8.00;62.45;100591.82;2107864;83;32125;-64
2021/04/02 07:55:06;;;;;;;9.85;7.55;;;;;;;8.13;62.71;100594.06;2096703;84;33115;-65
2021/04/02 07:58:13;;;;;;;7.83;7.10;;;;;;;8.35;63.07;100589.72;2120737;83;30266;-64
2021/04/02 08:01:22;;;;;;;10.93;8.08;;;;;;;8.67;63.14;100585.52;2118420;83;27715;-64
2021/04/02 08:04:51;;;;;;;9.48;7.67;;;;;;;8.97;62.69;100592.81;2121292;83;28906;-63
2021/04/02 08:07:56;;;;;;;8.20;6.80;;;;;;;9.14;61.68;100601.12;2114160;83;31199;-65
2021/04/02 08:11:18;;;;;;;7.05;6.37;;;;;;;9.25;61.16;100605.58;2093975;83;27993;-64
2021/04/02 08:14:34;;;;;;;8.15;6.35;;;;;;;9.38;61.21;100605.97;2062904;85;28957;-64
2021/04/02 08:17:49;;;;;;;7.05;6.35;;;;;;;9.55;60.17;100602.16;2330670;76;32252;-64
2021/04/02 08:20:55;;;;;;;10.15;7.67;;;;;;;9.56;60.26;100598.55;2265622;77;27769;-64
2021/04/02 08:23:59;;;;;;;6.37;5.78;;;;;;;9.77;60.15;100596.38;2305906;77;29772;-66
2021/04/02 08:27:04;;;;;;;6.20;5.67;;;;;;;10.00;60.21;100592.73;2306469;77;31047;-64
2021/04/02 08:30:09;;;;;;;6.10;5.53;;;;;;;10.23;59.04;100595.77;2306678;77;33559;-65
2021/04/02 08:33:12;;;;;;;6.60;5.40;;;;;;;10.40;59.28;100585.70;2289680;77;28536;-64
2021/04/02 08:36:14;;;;;;;8.78;7.15;;;;;;;10.59;59.06;100592.42;2277078;77;27723;-65
2021/04/02 08:39:22;;;;;;;7.37;6.12;;;;;;;10.80;58.57;100591.06;2232637;77;29778;-64
2021/04/02 08:42:22;;;;;;;;;;;;;;;10.94;57.18;100590.40;2290518;77;31137;-65
2021/04/02 08:45:24;;;;;;;7.20;5.95;;;;;;;11.02;56.52;100591.38;2264671;78;33998;-64
2021/04/02 08:48:27;;;;;;;6.30;5.70;;;;;;;10.98;56.69;100582.63;2264459;78;28922;-65
2021/04/02 08:51:29;;;;;;;7.55;6.80;;;;;;;11.07;57.12;100583.55;2289335;75;27763;-64
2021/04/02 08:54:31;;;;;;;8.25;6.60;;;;;;;11.16;55.77;100576.88;2264662;78;28803;-64
2021/04/02 08:57:35;;;;;;;8.23;6.20;;;;;;;11.13;54.90;100572.11;2264537;78;31320;-65
2021/04/02 09:00:38;;;;;;;8.70;7.87;;;;;;;11.03;55.32;100576.58;2271659;77;33085;-65
2021/04/02 09:03:42;;;;;;;7.28;6.12;;;;;;;11.12;55.36;100568.58;2269629;77;29171;-65
2021/04/02 09:06:45;;;;;;;9.75;6.35;;;;;;;11.29;54.80;100562.38;2304140;77;27659;-65
2021/04/02 09:09:49;;;;;;;8.88;7.35;;;;;;;11.43;55.89;100563.06;2217301;80;28675;-63
2021/04/02 09:12:53;;;;;;;8.63;7.30;;;;;;;11.62;54.68;100555.45;2258301;78;32124;-64
2021/04/02 09:15:55;;;;;;;8.23;7.03;;;;;;;11.72;55.51;100555.37;2260547;77;33102;-64
2021/04/02 09:18:58;;;;;;;9.00;7.83;;;;;;;11.87;54.68;100555.08;2284827;77;29058;-66
2021/04/02 09:22:02;;;;;;;8.80;7.45;;;;;;;11.95;54.65;100552.86;2230317;77;27885;-65
2021/04/02 09:25:07;;;;;;;8.53;7.65;;;;;;;12.05;54.96;100553.28;2182546;81;31029;-63
2021/04/02 09:28:09;;;;;;;8.45;7.62;;;;;;;12.15;53.72;100550.53;2223108;80;32400;-64
2021/04/02 09:31:23;;;;;;;10.25;7.67;;;;;;;12.20;52.95;100550.28;2222200;80;33116;-63
2021/04/02 09:34:26;;;;;;;11.75;10.10;;;;;;;12.21;53.45;100546.66;2260750;78;28854;-65
2021/04/02 09:37:29;;;;;;;12.23;9.55;;;;;;;12.23;53.37;100551.93;2222143;79;28228;-65
2021/04/02 09:40:33;;;;;;;10.25;9.10;;;;;;;12.26;53.39;100541.03;2224511;78;28799;-63
2021/04/02 09:43:49;;;;;;;8.05;7.25;;;;;;;12.31;52.95;100537.64;2219175;80;31136;-65
2021/04/02 09:46:51;;;;;;;;;;;;;;;12.33;52.28;100541.58;2230258;78;33174;-64
2021/04/02 09:49:54;;;;;;;7.67;6.97;;;;;;;12.29;52.03;100539.04;2222706;80;30249;-63
2021/04/02 09:53:03;;;;;;;9.23;8.30;;;;;;;12.26;52.30;100547.26;2256201;78;27707;-65
2021/04/02 09:56:12;;;;;;;7.95;7.15;;;;;;;12.24;52.55;100542.92;2217880;80;28622;-64
2021/04/02 09:59:18;;;;;;;9.78;8.80;;;;;;;12.27;52.39;100541.42;2223048;78;31133;-65
2021/04/02 10:02:20;;;;;;;10.48;8.20;;;;;;;12.34;52.54;100542.82;2208900;80;33139;-64
2021/04/02 10:05:22;;;;;;;9.03;7.78;;;;;;;12.29;51.79;100535.02;2241485;78;28976;-64
2021/04/02 10:08:27;;;;;;;10.63;9.63;;;;;;;12.25;51.10;100532.09;2221470;79;27663;-65
2021/04/02 10:11:29;;;;;;;10.08;8.35;;;;;;;12.16;50.69;100532.59;2225007;78;28876;-65
2021/04/02 10:14:31;;;;;;;9.68;7.87;;;;;;;12.02;51.55;100534.64;2176793;80;31599;-65
2021/04/02 10:17:34;;;;;;;8.43;7.35;;;;;;;12.03;51.76;100520.27;2221069;80;34380;-65
2021/04/02 10:20:36;;;;;;;9.18;8.23;;;;;;;11.98;51.30;100523.20;2262119;78;28142;-65
2021/04/02 10:23:39;;;;;;;11.20;10.00;;;;;;;11.93;50.95;100529.23;2184713;80;27701;-66
2021/04/02 10:26:43;;;;;;;8.53;7.67;;;;;;;11.91;50.89;100530.28;2222116;80;29834;-64
2021/04/02 10:29:47;;;;;;;8.43;7.62;;;;;;;11.81;50.69;100524.05;2182022;81;32103;-64
2021/04/02 10:32:49;;;;;;;8.33;7.50;;;;;;;11.76;50.53;100522.06;2238781;78;33113;-66
2021/04/02 10:35:52;;;;;;;8.33;7.47;;;;;;;11.72;50.73;100517.80;2222834;80;28932;-65
2021/04/02 10:38:55;;;;;;;9.65;8.65;;;;;;;11.60;50.38;100519.77;2184179;81;27671;-64
2021/04/02 10:41:57;;;;;;;11.53;8.65;;;;;;;11.58;50.84;100515.84;2203449;80;28825;-65
2021/04/02 10:45:00;;;;;;;9.85;7.50;;;;;;;11.58;50.54;100511.81;2260596;78;31181;-64
2021/04/02 10:48:04;;;;;;;9.75;8.20;;;;;;;11.61;50.73;100510.78;2220501;80;34311;-65
2021/04/02 10:51:07;;;;;;;9.08;8.15;;;;;;;11.64;50.50;100507.45;2255775;78;28842;-64
2021/04/02 10:54:09;;;;;;;9.53;8.53;;;;;;;11.64;50.65;100502.58;2218264;80;27700;-65
2021/04/02 10:57:13;;;;;;;10.88;8.95;;;;;;;11.69;51.00;100501.39;2263061;78;28795;-63
2021/04/02 11:00:17;;;;;;;12.40;8.63;;;;;;;11.72;50.69;100499.01;2263171;78;33393;-64
2021/04/02 11:03:20;;;;;;;10.17;9.10;;;;;;;11.75;50.99;100499.34;2263136;78;34069;-64
2021/04/02 11:06:22;;;;;;;9.83;8.55;;;;;;;11.75;50.91;100500.69;2263023;78;29728;-64
2021/04/02 11:09:25;;;;;;;7.78;6.97;;;;;;;11.72;50.64;100494.13;2234166;78;27669;-64
2021/04/02 11:12:30;;;;;;;9.68;8.58;;;;;;;11.67;49.89;100486.29;2248981;78;29808;-64
2021/04/02 11:15:33;;;;;;;8.80;7.90;;;;;;;11.58;50.24;100481.41;2181968;81;32228;-64
2021/04/02 11:18:35;;;;;;;9.88;8.45;;;;;;;11.53;50.27;100478.48;2218736;79;33245;-63
2021/04/02 11:21:37;;;;;;;11.90;9.38;;;;;;;11.46;49.50;100476.19;2218595;80;29335;-64
2021/04/02 11:24:40;;;;;;;10.15;8.83;;;;;;;11.36;49.48;100467.27;2218699;80;27741;-64
2021/04/02 11:27:45;;;;;;;8.73;7.83;;;;;;;11.31;49.95;100467.11;2217847;78;30153;-63
2021/04/02 11:30:48;;;;;;;9.98;7.15;;;;;;;11.22;49.55;100461.73;2177820;81;32038;-63
2021/04/02 11:33:50;;;;;;;8.43;7.17;;;;;;;11.16;49.99;100455.33;2177983;81;33193;-63
2021/04/02 11:36:53;;;;;;;9.43;7.50;;;;;;;11.10;49.64;100460.53;2218665;80;28862;-63
2021/04/02 11:39:55;;;;;;;8.20;7.40;;;;;;;11.01;49.50;100452.47;2218697;80;27765;-64
2021/04/02 11:43:01;;;;;;;7.75;6.95;;;;;;;10.99;49.58;100448.13;2215037;80;29868;-64
2021/04/02 11:46:03;;;;;;;10.05;7.92;;;;;;;10.94;49.04;100449.22;2258022;78;31123;-63
2021/04/02 11:49:06;;;;;;;9.08;7.70;;;;;;;10.89;49.51;100443.69;2235915;78;33133;-63
2021/04/02 11:52:09;;;;;;;7.58;6.60;;;;;;;10.88;49.50;100437.93;2187092;80;28868;-63
2021/04/02 11:55:13;;;;;;;9.35;8.40;;;;;;;10.86;49.31;100437.13;2258497;78;27751;-64
2021/04/02 11:58:15;;;;;;;11.65;10.48;;;;;;;10.86;49.50;100437.13;2218661;80;28766;-63
2021/04/02 12:01:18;;;;;;;9.73;8.73;;;;;;;10.83;49.62;100417.17;2218601;80;31222;-64
2021/04/02 12:04:20;;;;;;;9.53;8.15;;;;;;;10.84;49.72;100424.27;2258704;78;33121;-63
2021/04/02 12:07:23;;;;;;;7.92;7.17;;;;;;;10.86;49.81;100417.89;2258528;78;28903;-63
2021/04/02 12:10:26;;;;;;;10.43;9.28;;;;;;;10.91;50.11;100416.34;2258250;78;27551;-63
2021/04/02 12:13:28;;;;;;;11.35;9.35;;;;;;;10.93;49.54;100409.06;2230768;78;29147;-63
2021/04/02 12:16:31;;;;;;;11.05;8.03;;;;;;;10.83;49.10;100408.68;2174543;81;31158;-64
2021/04/02 12:19:34;;;;;;;8.90;8.00;;;;;;;10.79;49.59;100407.09;2195334;81;34068;-64
2021/04/02 12:22:36;;;;;;;8.28;7.22;;;;;;;10.79;49.76;100401.73;2195401;81;28852;-63
2021/04/02 12:25:39;;;;;;;9.20;8.23;;;;;;;10.85;49.87;100392.02;2195510;81;27653;-62
2021/04/02 12:28:42;;;;;;;9.85;8.20;;;;;;;10.88;49.53;100387.86;2195374;81;28820;-65
2021/04/02 12:31:45;;;;;;;9.10;7.05;;;;;;;10.89;49.29;100382.89;2195445;80;31155;-64
2021/04/02 12:34:47;;;;;;;9.35;8.35;;;;;;;10.86;49.42;100375.00;2195461;81;33113;-64
2021/04/02 12:37:49;;;;;;;8.03;7.22;;;;;;;10.86;49.20;100372.32;2195392;81;28865;-63
2021/04/02 12:40:52;;;;;;;9.68;7.05;;;;;;;10.81;48.74;100373.05;2230864;78;28163;-63
2021/04/02 12:43:55;;;;;;;8.38;7.58;;;;;;;10.84;49.29;100372.02;2195366;81;29814;-64
2021/04/02 12:46:57;;;;;;;8.30;7.47;;;;;;;10.83;48.56;100360.44;2194783;81;31132;-64
2021/04/02 12:49:59;;;;;;;8.50;7.67;;;;;;;10.84;48.79;100367.51;2196766;79;33969;-64
2021/04/02 12:53:02;;;;;;;8.23;7.37;;;;;;;10.88;49.07;100360.20;2234661;79;28861;-64
2021/04/02 12:56:08;;;;;;;8.05;7.28;;;;;;;10.93;49.31;100356.34;2242954;78;27708;-64
2021/04/02 12:59:10;;;;;;;9.65;7.90;;;;;;;10.98;48.76;100346.72;2244033;78;29715;-63
2021/04/02 13:02:12;;;;;;;13.32;9.30;;;;;;;11.02;48.66;100355.02;2195456;79;30944;-62
2021/04/02 13:05:16;;;;;;;11.43;8.15;;;;;;;11.04;48.74;100350.45;2195603;81;33128;-64
2021/04/02 13:08:18;;;;;;;27.50;18.85;;;;;;;11.04;48.71;100345.08;2195597;81;29748;-63
2021/04/02 13:11:22;;;;;;;15.58;12.00;;;;;;;11.06;48.83;100347.67;2195389;80;27681;-64
2021/04/02 13:14:24;;;;;;;17.75;12.37;;;;;;;11.07;48.10;100343.59;2195613;81;28812;-64
2021/04/02 13:17:26;;;;;;;11.20;10.03;;;;;;;11.07;48.10;100337.34;2194509;79;31151;-63
2021/04/02 13:20:31;;;;;;;9.93;8.88;;;;;;;11.08;48.29;100340.42;2192815;79;33117;-63
2021/04/02 13:23:34;;;;;;;10.20;8.35;;;;;;;11.11;48.49;100326.86;2195042;79;29178;-63
2021/04/02 13:26:36;;;;;;;10.43;9.43;;;;;;;11.14;48.63;100321.80;2232138;79;28189;-62
2021/04/02 13:29:39;;;;;;;8.85;7.85;;;;;;;11.19;48.15;100326.47;2231715;79;28804;-62
2021/04/02 13:32:56;;;;;;;9.25;8.03;;;;;;;11.21;47.57;100320.55;2231796;79;31992;-62
2021/04/02 13:35:59;;;;;;;11.30;8.60;;;;;;;11.21;46.60;100314.70;2228190;79;33973;-64
2021/04/02 13:39:02;;;;;;;8.83;7.92;;;;;;;11.20;47.23;100317.48;2231980;79;29587;-63
2021/04/02 13:42:06;;;;;;;8.60;7.37;;;;;;;11.20;46.87;100312.12;2231913;79;27654;-63
2021/04/02 13:45:11;;;;;;;10.00;8.98;;;;;;;11.16;46.81;100306.05;2232130;79;28812;-63
2021/04/02 13:48:13;;;;;;;9.15;8.18;;;;;;;11.17;47.03;100304.22;2232027;79;31215;-65
2021/04/02 13:51:17;;;;;;;9.50;8.50;;;;;;;11.17;46.94;100302.89;2231652;79;33954;-66
2021/04/02 13:54:19;;;;;;;10.08;8.75;;;;;;;11.18;47.17;100293.89;2193006;79;28975;-66
2021/04/02 13:57:23;;;;;;;10.38;8.48;;;;;;;11.21;47.26;100295.08;2209436;78;27604;-64
2021/04/02 14:00:29;;;;;;;10.20;9.15;;;;;;;11.22;47.32;100299.50;2231909;79;28169;-63
2021/04/02 14:03:32;;;;;;;10.20;8.73;;;;;;;11.25;47.34;100292.64;2231965;79;31127;-64
2021/04/02 14:06:34;;;;;;;9.35;8.35;;;;;;;11.29;46.78;100294.19;2231638;79;33109;-65
2021/04/02 14:09:37;;;;;;;10.25;8.88;;;;;;;11.32;47.23;100294.52;2231600;79;30024;-64
2021/04/02 14:12:41;;;;;;;11.97;8.93;;;;;;;11.37;47.24;100293.33;2214262;79;27760;-64
2021/04/02 14:15:43;;;;;;;11.80;8.48;;;;;;;11.39;46.85;100286.52;2192650;81;29798;-64
2021/04/02 14:18:46;;;;;;;14.18;11.35;;;;;;;11.35;46.59;100281.80;2189752;81;32041;-63